Time,TemperatureF,DewpointF,PressureIn,WindDirection,WindDirectionDegrees,WindSpeedMPH,WindSpeedGustMPH,Humidity,HourlyPrecipIn,Conditions,Clouds,dailyrainin,SoftwareType,DateUTC
2013-06-12 00:04:00,51.4,50.9,30.04,SW,225,0.0,-999.0,98,-99.99,,,0.00,Acu-Link.com,2013-06-12 07:04:00,
2013-06-12 00:19:00,51.1,50.6,30.03,South,180,2.7,-999.0,98,-99.99,,,0.00,Acu-Link.com,2013-06-12 07:19:00,
2013-06-12 00:34:00,51.3,50.8,30.04,SSW,202,0.0,-999.0,98,-99.99,,,0.00,Acu-Link.com,2013-06-12 07:34:00,
2013-06-12 00:50:00,50.9,50.4,30.05,East,90,0.0,-999.0,98,-99.99,,,0.00,Acu-Link.com,2013-06-12 07:50:00,
2013-06-12 01:05:00,50.4,49.9,30.04,SE,135,0.0,-999.0,98,-99.99,,,0.00,Acu-Link.com,2013-06-12 08:05:00,
2013-06-12 01:20:00,50.2,49.7,30.04,South,180,1.1,-999.0,98,-99.99,,,0.00,Acu-Link.com,2013-06-12 08:20:00,
2013-06-12 01:35:00,50.2,49.7,30.04,ESE,112,2.2,-999.0,98,-99.99,,,0.00,Acu-Link.com,2013-06-12 08:35:00,
2013-06-12 01:50:00,51.3,50.8,30.05,SSE,157,0.0,-999.0,98,-99.99,,,0.00,Acu-Link.com,2013-06-12 08:50:00,
2013-06-12 02:05:00,51.6,51.1,30.04,West,270,0.0,-999.0,98,-99.99,,,0.00,Acu-Link.com,2013-06-12 09:05:00,
2013-06-12 02:21:00,51.4,50.9,30.04,SW,225,0.0,-999.0,98,-99.99,,,0.00,Acu-Link.com,2013-06-12 09:21:00,
2013-06-12 02:36:00,51.1,50.6,30.05,South,180,0.0,-999.0,98,-99.99,,,0.00,Acu-Link.com,2013-06-12 09:36:00,
2013-06-12 02:51:00,50.4,49.9,30.04,SSW,202,0.0,-999.0,98,-99.99,,,0.00,Acu-Link.com,2013-06-12 09:51:00,
2013-06-12 03:06:00,49.8,49.3,30.04,SE,135,0.0,-999.0,98,-99.99,,,0.00,Acu-Link.com,2013-06-12 10:06:00,
2013-06-12 03:22:00,49.5,49.0,30.04,South,180,0.0,-999.0,98,-99.99,,,0.00,Acu-Link.com,2013-06-12 10:22:00,
2013-06-12 03:37:00,49.3,48.8,30.04,SSE,157,0.0,-999.0,98,-99.99,,,0.00,Acu-Link.com,2013-06-12 10:37:00,
2013-06-12 03:52:00,49.1,48.6,30.04,ESE,112,0.0,-999.0,98,-99.99,,,0.00,Acu-Link.com,2013-06-12 10:52:00,
2013-06-12 04:08:00,48.9,48.4,30.05,ENE,67,0.0,-999.0,98,-99.99,,,0.00,Acu-Link.com,2013-06-12 11:08:00,
2013-06-12 04:23:00,49.1,48.6,30.05,ESE,112,1.7,-999.0,98,-99.99,,,0.00,Acu-Link.com,2013-06-12 11:23:00,
2013-06-12 04:39:00,49.1,48.6,30.05,South,180,0.0,-999.0,98,-99.99,,,0.00,Acu-Link.com,2013-06-12 11:39:00,
2013-06-12 04:54:00,49.1,48.6,30.05,South,180,0.0,-999.0,98,-99.99,,,0.00,Acu-Link.com,2013-06-12 11:54:00,
2013-06-12 05:09:00,49.1,48.6,30.05,SSE,157,0.0,-999.0,98,-99.99,,,0.00,Acu-Link.com,2013-06-12 12:09:00,
2013-06-12 05:25:00,49.5,49.0,30.06,South,180,0.0,-999.0,98,-99.99,,,0.00,Acu-Link.com,2013-06-12 12:25:00,
2013-06-12 05:40:00,50.4,49.9,30.06,SSW,202,0.0,-999.0,98,-99.99,,,0.00,Acu-Link.com,2013-06-12 12:40:00,
2013-06-12 05:56:00,50.7,50.2,30.07,WSW,247,0.0,-999.0,98,-99.99,,,0.00,Acu-Link.com,2013-06-12 12:56:00,
2013-06-12 06:11:00,53.4,52.8,30.05,South,180,0.0,-999.0,98,-99.99,,,0.00,Acu-Link.com,2013-06-12 13:11:00,
2013-06-12 06:27:00,53.8,53.2,30.06,East,90,0.0,-999.0,98,-99.99,,,0.00,Acu-Link.com,2013-06-12 13:27:00,
2013-06-12 06:42:00,55.2,54.6,30.06,East,90,0.0,-999.0,98,-99.99,,,0.00,Acu-Link.com,2013-06-12 13:42:00,
2013-06-12 06:57:00,56.8,56.2,30.06,East,90,0.0,-999.0,98,-99.99,,,0.00,Acu-Link.com,2013-06-12 13:57:00,
2013-06-12 07:12:00,56.5,55.9,30.06,East,90,2.7,-999.0,98,-99.99,,,0.00,Acu-Link.com,2013-06-12 14:12:00,
2013-06-12 07:28:00,56.1,55.5,30.05,WSW,247,3.7,-999.0,98,-99.99,,,0.00,Acu-Link.com,2013-06-12 14:28:00,
2013-06-12 07:43:00,56.1,55.5,30.05,West,270,5.3,-999.0,98,-99.99,,,0.00,Acu-Link.com,2013-06-12 14:43:00,
2013-06-12 07:58:00,57.0,56.4,30.05,West,270,4.7,-999.0,98,-99.99,,,0.00,Acu-Link.com,2013-06-12 14:58:00,
2013-06-12 08:13:00,57.2,56.6,30.06,West,270,4.2,-999.0,98,-99.99,,,0.00,Acu-Link.com,2013-06-12 15:13:00,
2013-06-12 08:28:00,56.8,56.2,30.05,West,270,6.3,-999.0,98,-99.99,,,0.00,Acu-Link.com,2013-06-12 15:28:00,
2013-06-12 08:44:00,56.7,56.1,30.05,West,270,5.8,-999.0,98,-99.99,,,0.00,Acu-Link.com,2013-06-12 15:44:00,
2013-06-12 08:59:00,57.6,57.0,30.05,West,270,4.7,-999.0,98,-99.99,,,0.00,Acu-Link.com,2013-06-12 15:59:00,
2013-06-12 09:14:00,58.6,58.0,30.05,West,270,6.8,-999.0,98,-99.99,,,0.00,Acu-Link.com,2013-06-12 16:14:00,
2013-06-12 09:29:00,58.5,57.9,30.04,West,270,7.3,-999.0,98,-99.99,,,0.00,Acu-Link.com,2013-06-12 16:29:00,
2013-06-12 09:44:00,59.4,58.8,30.04,West,270,5.3,-999.0,98,-99.99,,,0.00,Acu-Link.com,2013-06-12 16:44:00,
2013-06-12 09:59:00,59.2,58.6,30.04,West,270,4.2,-999.0,98,-99.99,,,0.00,Acu-Link.com,2013-06-12 16:59:00,
2013-06-12 10:15:00,58.1,57.5,30.05,West,270,4.7,-999.0,98,-99.99,,,0.00,Acu-Link.com,2013-06-12 17:15:00,
2013-06-12 10:30:00,58.3,57.7,30.04,ENE,67,3.2,-999.0,98,-99.99,,,0.00,Acu-Link.com,2013-06-12 17:30:00,
2013-06-12 10:45:00,61.9,61.3,30.06,East,90,2.7,-999.0,98,-99.99,,,0.00,Acu-Link.com,2013-06-12 17:45:00,
2013-06-12 11:00:00,64.0,60.0,30.04,North,0,7.3,-999.0,87,-99.99,,,0.00,Acu-Link.com,2013-06-12 18:00:00,
2013-06-12 11:15:00,65.3,59.7,30.03,West,270,9.9,-999.0,82,-99.99,,,0.00,Acu-Link.com,2013-06-12 18:15:00,
2013-06-12 11:31:00,65.8,58.4,30.03,ENE,67,3.2,-999.0,77,-99.99,,,0.00,Acu-Link.com,2013-06-12 18:31:00,
2013-06-12 11:46:00,64.9,57.1,30.03,East,90,4.7,-999.0,76,-99.99,,,0.00,Acu-Link.com,2013-06-12 18:46:00,
2013-06-12 12:01:00,66.4,56.7,30.05,WNW,292,8.3,-999.0,71,-99.99,,,0.00,Acu-Link.com,2013-06-12 19:01:00,
2013-06-12 12:16:00,66.4,57.9,30.03,West,270,4.7,-999.0,74,-99.99,,,0.00,Acu-Link.com,2013-06-12 19:16:00,
2013-06-12 12:31:00,66.2,56.5,30.02,East,90,3.7,-999.0,71,-99.99,,,0.00,Acu-Link.com,2013-06-12 19:31:00,
2013-06-12 12:46:00,66.2,57.3,30.03,West,270,8.9,-999.0,73,-99.99,,,0.00,Acu-Link.com,2013-06-12 19:46:00,
2013-06-12 13:02:00,65.7,56.4,30.02,West,270,7.3,-999.0,72,-99.99,,,0.00,Acu-Link.com,2013-06-12 20:02:00,
2013-06-12 13:17:00,66.6,58.0,30.04,West,270,9.4,-999.0,74,-99.99,,,0.00,Acu-Link.com,2013-06-12 20:17:00,
2013-06-12 13:32:00,66.7,58.9,30.02,West,270,11.4,-999.0,76,-99.99,,,0.00,Acu-Link.com,2013-06-12 20:32:00,
2013-06-12 13:47:00,66.7,57.4,30.02,WNW,292,7.8,-999.0,72,-99.99,,,0.00,Acu-Link.com,2013-06-12 20:47:00,
2013-06-12 14:02:00,66.9,58.7,30.04,West,270,7.8,-999.0,75,-99.99,,,0.00,Acu-Link.com,2013-06-12 21:02:00,
2013-06-12 14:17:00,67.8,59.2,30.02,West,270,7.3,-999.0,74,-99.99,,,0.00,Acu-Link.com,2013-06-12 21:17:00,
2013-06-12 14:32:00,68.0,57.8,30.02,West,270,15.0,-999.0,70,-99.99,,,0.00,Acu-Link.com,2013-06-12 21:32:00,
2013-06-12 14:47:00,67.6,59.0,30.02,West,270,10.9,-999.0,74,-99.99,,,0.00,Acu-Link.com,2013-06-12 21:47:00,
2013-06-12 15:02:00,65.8,58.0,30.04,West,270,12.5,-999.0,76,-99.99,,,0.00,Acu-Link.com,2013-06-12 22:02:00,
2013-06-12 15:17:00,67.3,57.2,30.02,West,270,9.9,-999.0,70,-99.99,,,0.00,Acu-Link.com,2013-06-12 22:17:00,
2013-06-12 15:32:00,66.7,57.4,30.03,West,270,8.9,-999.0,72,-99.99,,,0.00,Acu-Link.com,2013-06-12 22:32:00,
2013-06-12 15:47:00,66.0,57.5,30.03,West,270,6.8,-999.0,74,-99.99,,,0.00,Acu-Link.com,2013-06-12 22:47:00,
2013-06-12 16:03:00,66.9,56.8,30.04,West,270,10.9,-999.0,70,-99.99,,,0.00,Acu-Link.com,2013-06-12 23:03:00,
2013-06-12 16:18:00,65.7,56.0,30.03,West,270,10.4,-999.0,71,-99.99,,,0.00,Acu-Link.com,2013-06-12 23:18:00,
2013-06-12 16:33:00,65.8,56.5,30.05,NNW,337,4.2,-999.0,72,-99.99,,,0.00,Acu-Link.com,2013-06-12 23:33:00,
2013-06-12 16:48:00,65.3,57.9,30.03,West,270,7.8,-999.0,77,-99.99,,,0.00,Acu-Link.com,2013-06-12 23:48:00,
2013-06-12 17:03:00,63.5,58.2,30.05,SW,225,8.3,-999.0,83,-99.99,,,0.00,Acu-Link.com,2013-06-13 00:03:00,
2013-06-12 17:18:00,62.4,59.7,30.05,West,270,7.8,-999.0,91,-99.99,,,0.00,Acu-Link.com,2013-06-13 00:18:00,
2013-06-12 17:33:00,61.9,59.9,30.04,West,270,3.2,-999.0,93,-99.99,,,0.00,Acu-Link.com,2013-06-13 00:33:00,
2013-06-12 17:48:00,61.0,59.0,30.05,East,90,4.2,-999.0,93,-99.99,,,0.00,Acu-Link.com,2013-06-13 00:48:00,
2013-06-12 18:03:00,61.3,60.4,30.04,NW,315,2.2,-999.0,97,-99.99,,,0.00,Acu-Link.com,2013-06-13 01:03:00,
2013-06-12 18:19:00,62.4,61.2,30.04,West,270,3.2,-999.0,96,-99.99,,,0.00,Acu-Link.com,2013-06-13 01:19:00,
2013-06-12 18:34:00,63.7,60.4,30.05,West,270,8.9,-999.0,89,-99.99,,,0.00,Acu-Link.com,2013-06-13 01:34:00,
2013-06-12 18:49:00,64.8,60.2,30.04,West,270,5.3,-999.0,85,-99.99,,,0.00,Acu-Link.com,2013-06-13 01:49:00,
2013-06-12 19:04:00,65.7,59.7,30.04,NNE,22,3.2,-999.0,81,-99.99,,,0.00,Acu-Link.com,2013-06-13 02:04:00,
2013-06-12 19:19:00,64.8,59.8,30.04,West,270,7.8,-999.0,84,-99.99,,,0.00,Acu-Link.com,2013-06-13 02:19:00,
2013-06-12 19:35:00,64.2,58.6,30.06,West,270,3.7,-999.0,82,-99.99,,,0.00,Acu-Link.com,2013-06-13 02:35:00,
2013-06-12 19:50:00,63.1,60.1,30.05,West,270,2.7,-999.0,90,-99.99,,,0.00,Acu-Link.com,2013-06-13 02:50:00,
2013-06-12 20:05:00,62.2,59.5,30.05,SSW,202,1.1,-999.0,91,-99.99,,,0.00,Acu-Link.com,2013-06-13 03:05:00,
2013-06-12 20:20:00,60.6,59.2,30.06,WSW,247,2.7,-999.0,95,-99.99,,,0.00,Acu-Link.com,2013-06-13 03:20:00,
2013-06-12 20:36:00,60.1,59.5,30.06,NNE,22,7.8,-999.0,98,-99.99,,,0.00,Acu-Link.com,2013-06-13 03:36:00,
2013-06-12 20:51:00,58.8,58.2,30.05,ESE,112,8.9,-999.0,98,-99.99,,,0.00,Acu-Link.com,2013-06-13 03:51:00,
2013-06-12 21:06:00,58.5,57.9,30.07,East,90,8.3,-999.0,98,-99.99,,,0.00,Acu-Link.com,2013-06-13 04:06:00,
2013-06-12 21:21:00,58.1,57.5,30.06,East,90,6.3,-999.0,98,-99.99,,,0.00,Acu-Link.com,2013-06-13 04:21:00,
2013-06-12 21:36:00,57.7,57.1,30.06,East,90,6.8,-999.0,98,-99.99,,,0.00,Acu-Link.com,2013-06-13 04:36:00,
2013-06-12 21:51:00,57.6,57.0,30.06,East,90,5.8,-999.0,98,-99.99,,,0.00,Acu-Link.com,2013-06-13 04:51:00,
2013-06-12 22:06:00,57.2,56.6,30.07,East,90,0.0,-999.0,98,-99.99,,,0.00,Acu-Link.com,2013-06-13 05:06:00,
2013-06-12 22:22:00,57.2,56.6,30.08,ENE,67,3.7,-999.0,98,-99.99,,,0.00,Acu-Link.com,2013-06-13 05:22:00,
2013-06-12 22:37:00,57.6,57.0,30.08,East,90,5.3,-999.0,98,-99.99,,,0.00,Acu-Link.com,2013-06-13 05:37:00,
2013-06-12 22:52:00,57.2,56.6,30.08,East,90,1.7,-999.0,98,-99.99,,,0.00,Acu-Link.com,2013-06-13 05:52:00,
2013-06-12 23:07:00,56.8,56.2,30.07,ENE,67,3.7,-999.0,98,-99.99,,,0.00,Acu-Link.com,2013-06-13 06:07:00,
2013-06-12 23:23:00,57.0,56.4,30.08,WSW,247,2.2,-999.0,98,-99.99,,,0.00,Acu-Link.com,2013-06-13 06:23:00,
2013-06-12 23:38:00,56.7,56.1,30.08,West,270,0.0,-999.0,98,-99.99,,,0.00,Acu-Link.com,2013-06-13 06:38:00,
2013-06-12 23:53:00,56.3,55.7,30.07,West,270,3.7,-999.0,98,-99.99,,,0.00,Acu-Link.com,2013-06-13 06:53:00,